Thunder radar more information blitzortung!


Radar de pluja more information rain snow radar


Visita la nostra xarxa de llocs de meteo:

Template documentation
and downloads

And another site



No particular awareness of the weather is required.    There are no Weather-warnings

Pagina Historial Weather Underground text

Diari Resum May 19, 2017 Unitats:  Imperial    Mètric   Tant
« Previous Dia
SegĂźent Dia »
Diari Setmana Mensual Anual Personalitzada
  Maxima: Minima: Media:
Temperatura: 73.8 °F 49.1 °F 64 °F
Punt de rosada: 49.3 °F 33.4 °F 43.2 °F
Humitat: 75 % 28 % 49 %
Wind Speed: 11.5 mph 0 mph 4.7 mph
RĂ fegues de vent: 11.5 mph - -
Vent:- - South
Pression baro: 30.2 in 30 in -
Precipitacions: 0.05 in    
Historical Graphs
 
 
Dades de taula per May 19, 2017
Temps Temperatura Punt de rosada Pression baro Vent Wind Speed RĂ fegues de vent Humitat Rainfall Rate (Hourly)
00:00 50 °F 40.6 °F 30.1 in NNE 1 mph 3 mph 70 % 0 in
00:04 55.4 °F 45.3 °F 30 in SSW 4.6 mph 4.6 mph 69 % 0 in
00:10 49.6 °F 40.3 °F 30.1 in Calm   2 mph 70 % 0 in
00:20 50 °F 40.6 °F 30.1 in NNE 1 mph 2 mph 70 % 0 in
00:30 49.8 °F 40.5 °F 30.1 in NE 1 mph 2 mph 70 % 0 in
00:40 49.8 °F 40.5 °F 30.1 in NE 1 mph 3 mph 70 % 0 in
00:50 49.6 °F 39.9 °F 30.1 in SW 1 mph 4 mph 69 % 0 in
01:00 49.3 °F 39.9 °F 30.1 in Calm   1 mph 70 % 0 in
01:10 49.3 °F 39.9 °F 30.1 in Calm   1 mph 70 % 0 in
01:20 49.1 °F 40.1 °F 30.1 in Calm   1 mph 71 % 0 in
01:30 49.1 °F 39.7 °F 30.1 in NNE 1 mph 2 mph 70 % 0 in
01:40 49.5 °F 39.7 °F 30.1 in WNW 3 mph 4 mph 69 % 0 in
01:50 49.8 °F 40.5 °F 30.1 in West 1 mph 3 mph 70 % 0 in
02:00 50 °F 40.3 °F 30.1 in WSW 2 mph 2 mph 69 % 0 in
02:10 50.2 °F 40.5 °F 30.1 in West 2 mph 3 mph 69 % 0 in
02:20 50.4 °F 40.6 °F 30.1 in WSW 2 mph 2 mph 69 % 0 in
02:30 50.9 °F 41.2 °F 30.1 in WSW 1 mph 3 mph 69 % 0 in
02:40 51.8 °F 41.9 °F 30.1 in SW 1 mph 3 mph 69 % 0 in
02:50 51.8 °F 41.5 °F 30.1 in SW 2 mph 4 mph 68 % 0 in
03:00 52.3 °F 42.1 °F 30.1 in SW 2 mph 3 mph 68 % 0 in
03:10 52.9 °F 42.3 °F 30.1 in WSW 5 mph 5 mph 67 % 0 in
03:20 53.4 °F 42.6 °F 30.1 in WSW 2 mph 7 mph 67 % 0 in
03:30 53.2 °F 42.3 °F 30.1 in WSW 6 mph 6 mph 66 % 0 in
03:40 53.6 °F 42.4 °F 30.1 in WSW 3 mph 6 mph 66 % 0 in
03:50 54 °F 42.4 °F 30.1 in WSW 3 mph 8 mph 65 % 0 in
04:00 54.1 °F 42.6 °F 30.1 in WSW 3 mph 7 mph 65 % 0 in
04:10 55 °F 43.5 °F 30.1 in WSW 5 mph 6 mph 65 % 0 in
04:20 55.4 °F 43.3 °F 30.1 in WSW 6 mph 6 mph 64 % 0 in
04:30 56.3 °F 44.2 °F 30.1 in WSW 3 mph 5 mph 64 % 0 in
04:40 56.5 °F 44.4 °F 30.1 in WSW 6 mph 6 mph 64 % 0 in
04:50 56.8 °F 44.4 °F 30.1 in WSW 2 mph 5 mph 63 % 0 in
05:00 57.4 °F 44.4 °F 30.2 in WSW 3 mph 6 mph 62 % 0 in
05:10 57.9 °F 45 °F 30.1 in WSW 3 mph 6 mph 62 % 0 in
05:20 58.5 °F 45.1 °F 30.1 in WSW 5 mph 6 mph 61 % 0 in
05:30 59.4 °F 45.9 °F 30.2 in SW 2 mph 4 mph 61 % 0 in
10:38 60.1 °F 45.7 °F 30.2 in WSW 4.6 mph 4.6 mph 59 % 0 in
10:40 60.3 °F 45.9 °F 30.2 in West 5.8 mph 5.8 mph 59 % 0 in
10:45 60.6 °F 46.2 °F 30.2 in SW 4.6 mph 4.6 mph 59 % 0 in
10:50 61.5 °F 46.6 °F 30.2 in WNW 2.3 mph 2.3 mph 58 % 0 in
10:55 61.2 °F 45.3 °F 30.2 in WSW 5.8 mph 5.8 mph 56 % 0 in
11:00 61.5 °F 45.7 °F 30.2 in West 7.8 mph 7.8 mph 56 % 0 in
11:05 62.1 °F 46.2 °F 30.2 in WSW 3.5 mph 3.5 mph 56 % 0 in
11:10 61.3 °F 44.4 °F 30.2 in WSW 6.9 mph 6.9 mph 54 % 0 in
11:15 61.7 °F 45 °F 30.2 in NNW 5.8 mph 5.8 mph 54 % 0 in
11:20 61.9 °F 44.6 °F 30.2 in West 5.8 mph 5.8 mph 53 % 0 in
11:25 62.4 °F 45.1 °F 30.2 in NW 9.2 mph 9.2 mph 53 % 0 in
11:30 63.1 °F 45.1 °F 30.2 in SW 4.6 mph 4.6 mph 52 % 0 in
11:35 63.5 °F 45.7 °F 30.2 in South 3.5 mph 3.5 mph 52 % 0 in
11:40 64.2 °F 46.2 °F 30.2 in NNE 3.1 mph 3.1 mph 52 % 0 in
11:45 64.8 °F 46.2 °F 30.2 in NW 5.8 mph 5.8 mph 51 % 0 in
11:50 64.8 °F 46.2 °F 30.2 in NNE 7.6 mph 7.6 mph 51 % 0 in
11:55 64.8 °F 46.2 °F 30.2 in ENE 4.6 mph 4.6 mph 51 % 0 in
12:00 65.8 °F 46.8 °F 30.2 in East 3.5 mph 3.5 mph 50 % 0 in
12:05 64.9 °F 45.9 °F 30.2 in South 5.4 mph 5.4 mph 50 % 0 in
12:10 64.9 °F 45.9 °F 30.2 in SSE 3.5 mph 3.5 mph 50 % 0 in
12:15 66 °F 46.8 °F 30.2 in SSW 6.4 mph 6.4 mph 50 % 0 in
12:20 66.2 °F 46.6 °F 30.2 in SSW 8.1 mph 8.1 mph 49 % 0 in
12:25 67.3 °F 47.5 °F 30.2 in SW 2.3 mph 2.3 mph 49 % 0 in
12:30 67.5 °F 47.1 °F 30.2 in SSE 8.1 mph 8.1 mph 48 % 0 in
12:35 66.7 °F 46.4 °F 30.2 in SW 4.6 mph 4.6 mph 48 % 0 in
12:40 68 °F 47.7 °F 30.2 in SSE 2.3 mph 2.3 mph 48 % 0 in
12:45 68.4 °F 47.8 °F 30.2 in East 2.6 mph 2.6 mph 48 % 0 in
12:50 68.7 °F 48.2 °F 30.2 in South 5.8 mph 5.8 mph 48 % 0 in
12:55 68.9 °F 47.8 °F 30.1 in South 4.9 mph 4.9 mph 47 % 0 in
13:00 69.4 °F 48.9 °F 30.1 in SW 3.8 mph 3.8 mph 48 % 0 in
13:05 68.2 °F 46.6 °F 30.1 in East 2.3 mph 2.3 mph 46 % 0 in
13:10 68.4 °F 47.3 °F 30.1 in SSE 5.8 mph 5.8 mph 47 % 0 in
13:15 68.9 °F 47.3 °F 30.1 in ESE 5.8 mph 5.8 mph 46 % 0 in
13:20 68.2 °F 46.6 °F 30.1 in West 8.5 mph 8.5 mph 46 % 0 in
13:25 68.9 °F 47.3 °F 30.1 in SSW 4.3 mph 4.3 mph 46 % 0 in
13:30 70.3 °F 48 °F 30.1 in SSW 3.5 mph 3.5 mph 45 % 0 in
13:35 69.8 °F 46.2 °F 30.1 in West 6.9 mph 6.9 mph 43 % 0 in
13:40 70.2 °F 46 °F 30.1 in North 4.6 mph 4.6 mph 42 % 0 in
13:45 71.2 °F 46.2 °F 30.1 in NE 4.6 mph 4.6 mph 41 % 0 in
13:50 71.1 °F 46.2 °F 30.1 in NW 4.9 mph 4.9 mph 41 % 0 in
13:55 71.1 °F 46.2 °F 30.1 in WSW 5.8 mph 5.8 mph 41 % 0 in
14:00 71.2 °F 45.7 °F 30.1 in WSW 4.6 mph 4.6 mph 40 % 0 in
14:05 71.6 °F 46 °F 30.1 in WSW 5.8 mph 5.8 mph 40 % 0 in
14:10 71.1 °F 44.2 °F 30.1 in WNW 5.8 mph 5.8 mph 38 % 0 in
14:15 71.2 °F 43.5 °F 30.1 in SW 8.1 mph 8.1 mph 37 % 0 in
14:20 71.6 °F 43.9 °F 30.1 in ESE 6.9 mph 6.9 mph 37 % 0 in
14:25 71.4 °F 43.2 °F 30.1 in NNE 5.8 mph 5.8 mph 36 % 0 in
14:30 72.1 °F 43.7 °F 30.1 in WSW 6.2 mph 6.2 mph 36 % 0 in
14:35 72 °F 43.5 °F 30.1 in SW 7.8 mph 7.8 mph 36 % 0 in
14:40 71.8 °F 42.6 °F 30.1 in West 4.6 mph 4.6 mph 35 % 0 in
14:45 72.3 °F 43.2 °F 30.1 in West 8.1 mph 8.1 mph 35 % 0 in
14:50 72.5 °F 42.4 °F 30.1 in East 5.8 mph 5.8 mph 34 % 0 in
14:55 73 °F 43.9 °F 30.1 in SSE 5.8 mph 5.8 mph 35 % 0 in
15:00 73 °F 43.9 °F 30.1 in ENE 4.6 mph 4.6 mph 35 % 0 in
15:05 72 °F 42.1 °F 30.1 in West 5.8 mph 5.8 mph 34 % 0 in
15:10 72.9 °F 42.8 °F 30.1 in West 8.1 mph 8.1 mph 34 % 0 in
15:15 73.2 °F 43.2 °F 30.1 in NNW 5.8 mph 5.8 mph 34 % 0 in
15:20 72.7 °F 42.6 °F 30.1 in WSW 5.8 mph 5.8 mph 34 % 0 in
15:25 72.5 °F 42.4 °F 30.1 in SW 4.6 mph 4.6 mph 34 % 0 in
15:30 72.1 °F 43 °F 30.1 in South 5.8 mph 5.8 mph 35 % 0 in
15:35 72 °F 43.5 °F 30.1 in South 5.8 mph 5.8 mph 36 % 0 in
15:40 71.6 °F 43.2 °F 30.1 in WSW 7.4 mph 7.4 mph 36 % 0 in
15:41 71.6 °F 43.2 °F 30.1 in SW 6.9 mph 6.9 mph 36 % 0 in
15:46 72.1 °F 43.7 °F 30.1 in SSW 4.5 mph 4.5 mph 36 % 0 in
15:51 72.1 °F 43.7 °F 30.1 in SW 9.2 mph 9.2 mph 36 % 0 in
15:56 72.1 °F 43 °F 30.1 in SSW 10.4 mph 10.4 mph 35 % 0 in
16:01 72.1 °F 43.7 °F 30.1 in WSW 5.8 mph 5.9 mph 36 % 0 in
16:06 72.5 °F 42.4 °F 30.1 in South 2.3 mph 2.3 mph 34 % 0 in
16:11 73.2 °F 44.8 °F 30.1 in WSW 7.8 mph 7.8 mph 36 % 0 in
16:16 72.5 °F 42.4 °F 30.1 in ESE 8.1 mph 8.1 mph 34 % 0 in
16:21 73 °F 44.4 °F 30.1 in SSW 9.2 mph 9.2 mph 36 % 0 in
16:26 73.2 °F 43.9 °F 30 in SW 6.9 mph 6.9 mph 35 % 0 in
16:31 73.8 °F 43.5 °F 30 in West 5.9 mph 5.9 mph 34 % 0 in
16:36 73.8 °F 44.4 °F 30 in SSW 8.1 mph 8.1 mph 35 % 0 in
16:41 73.8 °F 43.5 °F 30 in SW 5.8 mph 5.8 mph 34 % 0 in
16:46 73.8 °F 43.5 °F 30 in SW 9.2 mph 9.2 mph 34 % 0 in
16:51 73.6 °F 43.5 °F 30 in WSW 5.8 mph 5.8 mph 34 % 0 in
16:56 73.2 °F 44.8 °F 30 in SSE 5.8 mph 5.8 mph 36 % 0 in
17:01 72.7 °F 43.3 °F 30 in SW 6.9 mph 6.9 mph 35 % 0 in
17:06 72.3 °F 42.4 °F 30 in SSE 5.9 mph 5.9 mph 34 % 0 in
17:11 72.7 °F 43.3 °F 30 in SSW 3.6 mph 3.6 mph 35 % 0 in
17:16 72.5 °F 43.3 °F 30 in SSW 5.8 mph 5.8 mph 35 % 0 in
17:21 72.3 °F 43.2 °F 30 in SSW 8.1 mph 8.1 mph 35 % 0 in
17:26 72.7 °F 43.3 °F 30 in SW 9.8 mph 9.8 mph 35 % 0 in
17:31 73 °F 43.9 °F 30 in SW 8.1 mph 8.1 mph 35 % 0 in
17:36 73.2 °F 43.9 °F 30 in SSW 11.5 mph 11.5 mph 35 % 0 in
17:41 72.5 °F 43.3 °F 30.1 in SW 6.4 mph 6.4 mph 35 % 0 in
17:46 72.3 °F 42.4 °F 30.1 in SSW 6.9 mph 6.9 mph 34 % 0 in
17:51 72.9 °F 42.8 °F 30.1 in South 5.8 mph 5.8 mph 34 % 0 in
17:56 73.2 °F 43.9 °F 30 in WSW 4 mph 4 mph 35 % 0 in
18:01 73 °F 43 °F 30 in SW 8.1 mph 8.1 mph 34 % 0 in
18:02 72.7 °F 42.6 °F 30 in WSW 8.1 mph 8.1 mph 34 % 0 in
18:07 73 °F 43.9 °F 30 in SW 6.9 mph 6.9 mph 35 % 0 in
18:12 72.5 °F 42.4 °F 30 in WSW 6.9 mph 6.9 mph 34 % 0 in
18:17 72.5 °F 41.7 °F 30 in SW 4.6 mph 4.6 mph 33 % 0 in
18:22 72.7 °F 41.2 °F 30 in NNW 5.8 mph 5.8 mph 32 % 0 in
18:27 72.7 °F 40.3 °F 30 in WSW 4.6 mph 4.6 mph 31 % 0 in
18:32 72.7 °F 40.3 °F 30 in West 6.9 mph 6.9 mph 31 % 0 in
18:37 72.1 °F 39 °F 30 in West 4.6 mph 4.6 mph 30 % 0 in
18:42 72 °F 38.8 °F 30 in WNW 6.2 mph 6.2 mph 30 % 0 in
18:47 72.1 °F 39 °F 30 in SW 8.1 mph 8.1 mph 30 % 0 in
18:52 72.7 °F 39.4 °F 30 in WSW 4.6 mph 4.6 mph 30 % 0 in
18:57 72.5 °F 39.4 °F 30.1 in West 5.8 mph 5.8 mph 30 % 0 in
19:02 71.8 °F 38.7 °F 30.1 in West 4.6 mph 4.6 mph 30 % 0 in
19:07 71.6 °F 37.6 °F 30.1 in SW 8.1 mph 8.1 mph 29 % 0 in
19:10 58.5 °F 46.2 °F 30.1 in ENE 1 mph 1 mph 64 % 0 in
19:12 71.4 °F 37.6 °F 30.1 in North 8.1 mph 8.1 mph 29 % 0 in
19:17 70.9 °F 37 °F 30.1 in West 9.2 mph 9.2 mph 29 % 0 in
19:20 58.3 °F 46.6 °F 30.1 in NE 1 mph 2 mph 65 % 0 in
19:22 70.5 °F 36.7 °F 30.1 in NNW 8.1 mph 8.1 mph 29 % 0 in
19:27 70.3 °F 36.7 °F 30.1 in WSW 5.8 mph 5.8 mph 29 % 0 in
19:30 58.3 °F 46.6 °F 30.1 in Calm   1 mph 65 % 0 in
19:32 70.3 °F 36.7 °F 30.1 in SSW 6.4 mph 6.4 mph 29 % 0 in
19:37 70 °F 35.4 °F 30.1 in WSW 5.8 mph 5.8 mph 28 % 0 in
19:40 58.1 °F 46.8 °F 30.1 in ENE 2 mph 3 mph 66 % 0 in
19:42 70 °F 36.1 °F 30.1 in WSW 5.8 mph 5.8 mph 29 % 0 in
19:47 69.8 °F 36.1 °F 30.1 in WNW 9.7 mph 9.7 mph 29 % 0 in
19:50 58.1 °F 47.1 °F 30.1 in ENE 1 mph 2 mph 67 % 0 in
19:52 69.6 °F 36 °F 30.1 in West 5.8 mph 5.8 mph 29 % 0 in
19:57 69.3 °F 35.6 °F 30.1 in SW 3.5 mph 3.5 mph 29 % 0 in
20:00 57.7 °F 46.6 °F 30.2 in Calm   1 mph 66 % 0 in
20:02 68.9 °F 35.2 °F 30.1 in WSW 6.9 mph 6.9 mph 29 % 0 in
20:07 68.7 °F 35.2 °F 30.1 in West 4.6 mph 4.6 mph 29 % 0 in
20:10 57.7 °F 47.1 °F 30.1 in NE 1 mph 2 mph 68 % 0 in
20:12 68.5 °F 35.1 °F 30.1 in WSW 2.3 mph 2.3 mph 29 % 0 in
20:17 68.2 °F 34.7 °F 30.1 in WSW 5.4 mph 5.4 mph 29 % 0 in
20:20 57.7 °F 47.1 °F 30.1 in NE 1 mph 2 mph 68 % 0 in
20:22 67.8 °F 35.2 °F 30.1 in West 3.5 mph 3.5 mph 30 % 0 in
20:27 67.6 °F 35.1 °F 30 in WSW 5.8 mph 5.8 mph 30 % 0 in
20:30 57.7 °F 47.7 °F 30.1 in ENE 2 mph 3 mph 69 % 0 in
20:32 67.5 °F 34.9 °F 30 in WSW 3.5 mph 3.5 mph 30 % 0 in
20:37 67.1 °F 34.5 °F 30 in WNW 2.3 mph 2.3 mph 30 % 0 in
20:40 57.4 °F 47.7 °F 30.2 in NE 1 mph 3 mph 70 % 0 in
20:42 66.9 °F 34.5 °F 30.1 in NNW 3.5 mph 3.5 mph 30 % 0 in
20:47 66.7 °F 34.3 °F 30.1 in WSW 3.5 mph 3.5 mph 30 % 0 in
20:50 57.4 °F 47.7 °F 30.2 in NE 3 mph 3 mph 70 % 0 in
20:52 66.4 °F 34 °F 30.1 in Calm     30 % 0 in
20:57 66.2 °F 33.8 °F 30.1 in WNW 2.3 mph 2.3 mph 30 % 0 in
21:00 57.6 °F 48.9 °F 30.2 in ENE 6 mph 6 mph 73 % 0 in
21:02 65.8 °F 33.4 °F 30.1 in Calm     30 % 0 in
21:07 65.3 °F 34 °F 30.1 in NNE 5.8 mph 5.8 mph 31 % 0 in
21:10 57.4 °F 49.3 °F 30.2 in ENE 6 mph 7 mph 74 % 0 in
21:12 64.8 °F 35.1 °F 30.1 in NE 5.8 mph 5.8 mph 33 % 0 in
21:17 64 °F 35.8 °F 30.1 in NE 5.8 mph 5.8 mph 35 % 0 in
21:20 57.2 °F 49.3 °F 30.2 in ENE 3 mph 8 mph 75 % 0 in
21:22 63.5 °F 37.4 °F 30.1 in NNE 4.3 mph 4.3 mph 38 % 0 in
21:27 63 °F 38.8 °F 30.1 in ENE 8.1 mph 8.1 mph 41 % 0 in
21:30 57.2 °F 48.9 °F 30.2 in East 5 mph 8 mph 74 % 0 in
21:32 62.4 °F 40.8 °F 30.1 in NNE 6.9 mph 6.9 mph 45 % 0 in
21:37 62.1 °F 41 °F 30.1 in ENE 4.6 mph 4.6 mph 46 % 0 in
21:40 57 °F 48.4 °F 30.2 in East 5 mph 8 mph 73 % 0 in
21:42 61.7 °F 42.3 °F 30.1 in ENE 6.9 mph 6.9 mph 49 % 0 in
21:47 61.3 °F 42.4 °F 30.1 in North 4.6 mph 4.6 mph 50 % 0 in
21:50 57 °F 48 °F 30.2 in East 3 mph 5 mph 72 % 0 in
21:52 61.2 °F 43 °F 30.1 in ENE 8.1 mph 8.1 mph 51 % 0 in
21:57 61 °F 43.2 °F 30.1 in NNE 4.6 mph 4.6 mph 52 % 0 in
22:00 56.8 °F 47.5 °F 30.2 in ENE 3 mph 5 mph 71 % 0 in
22:02 60.8 °F 43.2 °F 30.1 in ESE 5.9 mph 5.9 mph 52 % 0 in
22:07 60.8 °F 43.5 °F 30.1 in ENE 4.6 mph 4.6 mph 53 % 0 in
22:10 56.7 °F 47.7 °F 30.2 in ENE 3 mph 6 mph 72 % 0 in
22:12 60.6 °F 43.9 °F 30.1 in ENE 2.4 mph 2.4 mph 54 % 0 in
22:17 60.6 °F 43.9 °F 30.1 in NE 4.6 mph 4.6 mph 54 % 0 in
22:20 56.3 °F 47.5 °F 30.2 in ENE 2 mph 5 mph 72 % 0 in
22:22 60.4 °F 44.2 °F 30.1 in East 7.1 mph 7.1 mph 55 % 0 in
22:27 60.3 °F 44.4 °F 30.1 in NNE 5.8 mph 5.8 mph 56 % 0 in
22:32 60.1 °F 44.8 °F 30.1 in ENE 4.6 mph 4.6 mph 57 % 0 in
22:37 60.1 °F 44.8 °F 30.1 in East 4.6 mph 4.6 mph 57 % 0 in
22:40 55.8 °F 46.6 °F 30.2 in NE 3 mph 3 mph 71 % 0 in
22:42 60.1 °F 44.8 °F 30.1 in NNE 3.5 mph 3.5 mph 57 % 0 in
22:47 59.7 °F 45 °F 30.1 in ESE 3.3 mph 3.3 mph 58 % 0 in
22:50 55.6 °F 46.2 °F 30.2 in NE 2 mph 3 mph 71 % 0 in
22:52 59.7 °F 45.3 °F 30.1 in ENE 4.6 mph 4.6 mph 59 % 0 in
23:00 55.6 °F 45.9 °F 30.2 in NNE 3 mph 3 mph 70 % 0 in
23:02 59.5 °F 45.1 °F 30.1 in East 3.5 mph 3.5 mph 59 % 0 in
23:07 59.4 °F 45 °F 30.1 in ENE 3.5 mph 3.5 mph 59 % 0 in
23:10 55 °F 45.3 °F 30.2 in NNE 1 mph 3 mph 70 % 0 in
23:12 59.2 °F 45.3 °F 30.1 in ENE 3.8 mph 3.8 mph 60 % 0 in
23:17 59.2 °F 45.3 °F 30.1 in ENE 4.6 mph 4.6 mph 60 % 0 in
23:20 55 °F 45.3 °F 30.2 in NE 3 mph 3 mph 70 % 0 in
23:22 59.2 °F 45.7 °F 30.1 in NNE 6.9 mph 6.9 mph 61 % 0 in
23:27 59 °F 45.7 °F 30.1 in NE 3.5 mph 3.5 mph 61 % 0 in
23:30 54.9 °F 45 °F 30.2 in North 1 mph 2 mph 69 % 0 in
23:32 59 °F 46 °F 30.1 in NNE 4.6 mph 4.6 mph 62 % 0 in
23:37 59 °F 46 °F 30.1 in ENE 3.5 mph 3.5 mph 62 % 0 in
23:40 55 °F 45.3 °F 30.2 in North 1 mph 3 mph 70 % 0 in
23:42 58.8 °F 45.9 °F 30.1 in NE 4.6 mph 4.6 mph 62 % 0 in
23:47 58.8 °F 45.9 °F 30.1 in NNE 4.6 mph 4.6 mph 62 % 0 in
23:50 55 °F 45.1 °F 30.2 in NNW 3 mph 5 mph 69 % 0 in
23:52 58.6 °F 46 °F 30.1 in ENE 3.5 mph 3.5 mph 63 % 0 in
23:57 58.6 °F 46 °F 30.1 in East 3.5 mph 3.5 mph 63 % 0 in
Meteo Sesrovires
Elogis d' Weather Underground - 3.75 mb

Guio original per  Jim McMurry - jmcmurry@mwt.net Adaptat per a la plantilla per  Wim van der Kuil - Leuven-Template.eu

Trobareu la nostra informacio del temps tambe a:

Weather Underground

AWEKAS